TimeCDT,TemperatureF,Dew PointF,Humidity,Sea Level PressureIn,VisibilityMPH,Wind Direction,Wind SpeedMPH,Gust SpeedMPH,PrecipitationIn,Events,Conditions,WindDirDegrees,DateUTC
12:52 AM,69.1,57.0,65,29.90,10.0,SSE,12.7,-,N/A,,Clear,160,2013-06-19 05:52:00
1:52 AM,69.1,57.9,68,29.91,10.0,SSW,11.5,20.7,N/A,,Partly Cloudy,210,2013-06-19 06:52:00
2:52 AM,66.9,59.0,76,29.89,10.0,South,8.1,-,N/A,,Clear,180,2013-06-19 07:52:00
3:52 AM,66.0,60.1,81,29.87,10.0,SSE,8.1,-,N/A,,Scattered Clouds,160,2013-06-19 08:52:00
4:52 AM,64.9,60.1,84,29.86,10.0,South,9.2,-,N/A,,Clear,180,2013-06-19 09:52:00
5:52 AM,64.9,59.0,81,29.83,10.0,SE,15.0,-,N/A,,Clear,140,2013-06-19 10:52:00
6:52 AM,64.0,59.0,84,29.83,10.0,SSE,13.8,-,N/A,,Clear,150,2013-06-19 11:52:00
7:52 AM,64.9,59.0,81,29.87,10.0,SSW,10.4,21.9,N/A,,Scattered Clouds,210,2013-06-19 12:52:00
8:52 AM,66.9,59.0,76,29.87,10.0,South,8.1,-,N/A,,Scattered Clouds,180,2013-06-19 13:52:00
9:52 AM,68.0,60.1,76,29.86,10.0,South,9.2,-,N/A,,Mostly Cloudy,170,2013-06-19 14:52:00
10:52 AM,73.0,59.0,61,29.84,10.0,SSE,9.2,-,N/A,,Clear,160,2013-06-19 15:52:00
11:52 AM,82.0,55.0,39,29.81,10.0,South,18.4,-,N/A,,Clear,190,2013-06-19 16:52:00
12:52 PM,84.9,55.0,36,29.79,10.0,SSE,13.8,-,N/A,,Clear,150,2013-06-19 17:52:00
1:52 PM,86.0,55.9,36,29.77,10.0,South,18.4,29.9,N/A,,Clear,170,2013-06-19 18:52:00
2:52 PM,87.1,59.0,39,29.74,10.0,SSE,23.0,31.1,N/A,,Partly Cloudy,150,2013-06-19 19:52:00
3:52 PM,87.1,59.0,39,29.73,10.0,SSE,27.6,34.5,N/A,,Scattered Clouds,160,2013-06-19 20:52:00
4:52 PM,87.1,59.0,39,29.73,10.0,SSE,26.5,33.4,N/A,,Mostly Cloudy,160,2013-06-19 21:52:00
5:52 PM,84.9,60.1,43,29.71,10.0,SSE,23.0,35.7,N/A,,Mostly Cloudy,160,2013-06-19 22:52:00
6:52 PM,84.9,60.1,43,29.70,10.0,SSE,26.5,34.5,N/A,,Partly Cloudy,160,2013-06-19 23:52:00
7:52 PM,84.0,60.1,44,29.70,10.0,SSE,25.3,33.4,N/A,,Clear,160,2013-06-20 00:52:00
8:52 PM,80.1,59.0,48,29.70,10.0,SSE,21.9,32.2,N/A,,Clear,160,2013-06-20 01:52:00
9:52 PM,77.0,59.0,54,29.71,10.0,SSE,20.7,29.9,N/A,,Clear,150,2013-06-20 02:52:00
10:52 PM,75.0,57.9,55,29.73,10.0,SSE,17.3,24.2,N/A,,Clear,150,2013-06-20 03:52:00
11:52 PM,73.9,59.0,59,29.72,10.0,SSE,17.3,24.2,N/A,,Clear,150,2013-06-20 04:52:00